Time;durP1;ratioP1;P1;durP2;ratioP2;P2;SDS_P1;SDS_P2;PMS_P1;PMS_P2;Temp;Humidity;BMP_temperature;BMP_pressure;BME280_temperature;BME280_humidity;BME280_pressure;Samples;Min_cycle;Max_cycle;Signal;HPM_P1;HPM_P2
2022/12/14 00:00:44;;;;;;;8.93;4.43;;;-0.40;99.90;;;-0.92;85.73;99916.66;5164673;28;20105;-67
2022/12/14 00:03:17;;;;;;;7.97;4.05;;;-0.40;99.90;;;-0.94;85.57;99913.13;5164646;28;20582;-68
2022/12/14 00:05:51;;;;;;;9.25;3.75;;;-0.40;99.90;;;-0.95;85.25;99906.22;5164588;28;20504;-67
2022/12/14 00:08:23;;;;;;;9.35;4.07;;;-0.40;99.90;;;-0.99;84.60;99914.47;5164489;28;20046;-68
2022/12/14 00:10:59;;;;;;;7.57;3.70;;;-0.40;99.90;;;-0.99;84.80;99906.81;5164420;28;20050;-67
2022/12/14 00:13:31;;;;;;;9.63;3.67;;;-0.50;99.90;;;-0.99;84.79;99911.91;5164744;28;20125;-68
2022/12/14 00:16:10;;;;;;;9.88;3.65;;;-0.40;99.90;;;-0.97;85.32;99904.38;5164342;28;20042;-67
2022/12/14 00:18:43;;;;;;;9.68;4.00;;;-0.50;99.90;;;-0.96;85.05;99886.56;5165679;28;20533;-68
2022/12/14 00:21:21;;;;;;;10.82;4.22;;;-0.40;99.90;;;-0.93;84.65;99888.41;5165027;28;20046;-67
2022/12/14 00:23:54;;;;;;;11.10;3.85;;;-0.40;99.90;;;-0.95;84.57;99888.31;5165158;28;20038;-67
2022/12/14 00:26:31;;;;;;;9.93;4.18;;;-0.40;99.90;;;-1.04;84.28;99885.19;5165020;28;20057;-67
2022/12/14 00:29:04;;;;;;;11.25;4.82;;;-0.50;99.80;;;-1.12;84.50;99886.31;5164390;28;20132;-67
2022/12/14 00:31:36;;;;;;;7.95;3.85;;;-0.50;99.90;;;-1.14;84.73;99880.22;5163008;28;20042;-67
2022/12/14 00:34:08;;;;;;;7.68;3.90;;;-0.50;99.90;;;-1.14;85.30;99882.78;5164188;28;20050;-67
2022/12/14 00:36:42;;;;;;;10.93;4.10;;;-0.60;99.90;;;-1.14;85.33;99882.78;5162715;28;20108;-73
2022/12/14 00:39:14;;;;;;;7.60;3.38;;;-0.60;99.90;;;-1.15;85.60;99887.00;5162898;28;20097;-73
2022/12/14 00:41:49;;;;;;;8.50;3.33;;;-0.60;99.90;;;-1.11;85.90;99888.09;5163183;28;20126;-74
2022/12/14 00:44:21;;;;;;;8.90;4.30;;;-0.60;99.90;;;-1.11;85.72;99875.28;5163855;28;20046;-73
2022/12/14 00:46:53;;;;;;;8.20;3.50;;;-0.60;99.90;;;-1.11;85.63;99881.34;5164123;28;20046;-73
2022/12/14 00:49:26;;;;;;;9.25;3.90;;;-0.60;99.90;;;-1.13;85.74;99867.53;5164373;28;20419;-73
2022/12/14 00:52:00;;;;;;;9.57;3.65;;;-0.60;99.90;;;-1.12;86.12;99865.84;5163890;28;20076;-73
2022/12/14 00:54:32;;;;;;;7.60;3.33;;;-0.60;99.90;;;-1.10;86.14;99864.31;5163964;28;20407;-73
2022/12/14 00:57:05;;;;;;;9.70;3.92;;;-0.60;99.90;;;-1.11;85.87;99859.94;5164002;28;20061;-67
2022/12/14 00:59:37;;;;;;;11.48;3.88;;;-0.60;99.90;;;-1.11;85.67;99859.94;5163783;28;20410;-67
2022/12/14 01:02:10;;;;;;;7.95;3.92;;;-0.60;99.90;;;-1.09;85.91;99848.16;5164433;28;20321;-68
2022/12/14 01:04:42;;;;;;;8.68;3.92;;;-0.50;99.90;;;-1.09;86.00;99845.63;5163542;28;20042;-70
2022/12/14 01:07:15;;;;;;;8.20;3.47;;;-0.60;99.90;;;-1.08;85.81;99844.81;5163619;28;20085;-70
2022/12/14 01:09:47;;;;;;;7.15;3.13;;;-0.50;99.90;;;-1.06;85.80;99843.25;5163749;28;20050;-70
2022/12/14 01:12:21;;;;;;;6.82;2.90;;;-0.50;99.90;;;-1.03;85.89;99847.69;5163595;28;20042;-70
2022/12/14 01:14:54;;;;;;;8.75;4.05;;;-0.50;99.90;;;-1.06;85.78;99848.34;5163029;28;20042;-70
2022/12/14 01:17:27;;;;;;;9.00;3.28;;;-0.50;99.90;;;-1.06;85.80;99837.25;5163492;28;20042;-69
2022/12/14 01:19:59;;;;;;;9.15;3.90;;;-0.50;99.90;;;-1.03;85.75;99840.03;5162238;28;20055;-71
2022/12/14 01:22:33;;;;;;;8.75;3.80;;;-0.50;99.90;;;-1.03;85.67;99828.13;5161800;28;20081;-71
2022/12/14 01:25:08;;;;;;;7.05;3.40;;;-0.50;99.90;;;-1.00;85.79;99818.06;5148732;28;20050;-70
2022/12/14 01:27:40;;;;;;;;;;;-0.50;99.90;;;-0.98;85.76;99810.47;5151435;28;20067;-70
2022/12/14 01:30:13;;;;;;;9.80;4.13;;;-0.50;99.90;;;-1.00;85.80;99812.94;5130507;28;19923;-70
2022/12/14 01:32:46;;;;;;;8.57;3.45;;;-0.50;99.90;;;-1.06;85.62;99811.66;5141179;28;20087;-70
2022/12/14 01:35:19;;;;;;;12.75;4.05;;;-0.50;99.90;;;-1.09;85.75;99802.13;5119217;28;20038;-70
2022/12/14 01:37:52;;;;;;;8.50;3.25;;;-0.50;99.90;;;-1.08;85.76;99809.00;5146365;28;20459;-70
2022/12/14 01:40:24;;;;;;;7.95;3.60;;;-0.50;99.90;;;-1.07;85.52;99799.66;5147453;28;20512;-70
2022/12/14 01:42:56;;;;;;;12.43;4.40;;;-0.50;99.90;;;-1.11;85.15;99793.44;5145944;28;20474;-70
2022/12/14 01:45:29;;;;;;;7.75;3.75;;;-0.50;99.90;;;-1.15;85.23;99796.63;5144804;28;20078;-71
2022/12/14 01:48:04;;;;;;;8.57;3.35;;;-0.50;99.90;;;-1.24;85.13;99783.22;5135048;28;20055;-70
2022/12/14 01:50:41;;;;;;;8.88;2.97;;;-0.60;99.90;;;-1.25;85.65;99779.78;5140807;28;20385;-70
2022/12/14 01:53:21;;;;;;;8.95;4.18;;;-0.60;99.90;;;-1.27;85.16;99780.47;5141773;28;20065;-71
2022/12/14 01:55:55;;;;;;;6.50;3.05;;;-0.60;99.90;;;-1.28;85.42;99779.59;5132481;28;20039;-70
2022/12/14 01:58:28;;;;;;;8.98;3.90;;;-0.60;99.90;;;-1.22;85.36;99789.34;5142667;28;20043;-70
2022/12/14 02:01:01;;;;;;;5.63;3.50;;;-0.60;99.90;;;-1.17;85.62;99787.97;5142320;28;20093;-70
2022/12/14 02:03:38;;;;;;;9.02;3.47;;;-0.60;99.90;;;-1.14;85.26;99785.59;5130722;28;20453;-70
2022/12/14 02:06:17;;;;;;;10.98;4.60;;;-0.50;99.90;;;-1.11;84.88;99778.09;5135795;28;20047;-70
2022/12/14 02:08:52;;;;;;;8.73;3.05;;;-0.50;99.90;;;-1.11;84.80;99767.88;5145945;28;20051;-71
2022/12/14 02:11:32;;;;;;;;;;;-0.50;99.90;;;-1.08;85.04;99773.22;5132596;28;20054;-70
2022/12/14 02:14:04;;;;;;;7.88;3.10;;;-0.50;99.90;;;-1.06;84.40;99758.84;5125707;28;19922;-70
2022/12/14 02:16:37;;;;;;;8.82;3.75;;;-0.40;99.90;;;-1.09;84.03;99763.78;5126068;28;20047;-71
2022/12/14 02:19:09;;;;;;;8.10;3.45;;;-0.50;99.60;;;-1.07;84.25;99769.84;5125586;28;20071;-70
2022/12/14 02:22:09;;;;;;;7.75;3.35;;;-0.40;99.70;;;-1.16;84.31;99759.94;5131926;28;20035;-70
2022/12/14 02:25:08;;;;;;;10.13;3.83;;;-0.50;99.50;;;-1.16;84.25;99753.94;5142763;28;20069;-70
2022/12/14 02:28:03;;;;;;;8.30;3.70;;;-0.50;99.50;;;-1.14;83.89;99753.22;5144406;28;20078;-70
2022/12/14 02:30:39;;;;;;;;;;;-0.50;99.60;;;-1.14;83.84;99737.00;5141701;28;20551;-70
2022/12/14 02:33:32;;;;;;;7.22;3.45;;;-0.50;99.50;;;-1.13;84.10;99749.00;5137058;28;19922;-71
2022/12/14 02:36:13;;;;;;;7.05;2.95;;;-0.50;99.40;;;-1.12;84.37;99725.19;5138724;28;20142;-70
2022/12/14 02:38:54;;;;;;;8.63;3.25;;;-0.50;99.50;;;-1.13;83.71;99719.19;5146528;28;20097;-71
2022/12/14 02:41:37;;;;;;;6.82;3.30;;;-0.50;99.40;;;-1.11;84.10;99724.41;5146554;28;20057;-70
2022/12/14 02:44:20;;;;;;;8.13;2.90;;;-0.50;99.50;;;-1.07;83.79;99738.28;5145711;28;20074;-71
2022/12/14 02:47:01;;;;;;;6.22;2.72;;;-0.50;99.50;;;-1.06;84.08;99724.69;5146268;28;20047;-71
2022/12/14 02:49:53;;;;;;;5.55;2.63;;;-0.50;99.50;;;-1.01;84.44;99726.78;5144783;28;20047;-70
2022/12/14 02:52:37;;;;;;;6.47;2.72;;;-0.40;99.70;;;-0.96;84.26;99727.94;5145257;28;20050;-73
2022/12/14 02:55:18;;;;;;;5.43;2.70;;;-0.40;99.60;;;-0.92;83.98;99718.78;5146181;28;20408;-69
2022/12/14 02:57:58;;;;;;;5.03;2.80;;;-0.30;99.60;;;-0.90;83.98;99718.09;5146422;28;20089;-69
2022/12/14 03:00:34;;;;;;;6.47;3.38;;;-0.40;99.60;;;-0.91;84.01;99705.22;5144428;28;20050;-69
2022/12/14 03:03:08;;;;;;;7.07;3.67;;;-0.40;99.50;;;-0.93;83.96;99720.44;5145714;28;20056;-68
2022/12/14 03:05:40;;;;;;;7.80;3.42;;;-0.40;99.40;;;-0.93;84.11;99700.00;5142052;28;20043;-69
2022/12/14 03:08:14;;;;;;;8.23;2.95;;;-0.40;99.50;;;-0.94;83.91;99697.34;5141828;28;20053;-69
2022/12/14 03:10:50;;;;;;;7.80;3.10;;;-0.40;99.40;;;-0.93;83.76;99697.44;5143975;28;20138;-69
2022/12/14 03:13:29;;;;;;;9.30;3.80;;;-0.30;99.50;;;-0.91;83.99;99697.56;5145150;28;20042;-68
2022/12/14 03:16:08;;;;;;;7.03;2.95;;;-0.30;99.50;;;-0.88;84.21;99693.50;5145065;28;20055;-70
2022/12/14 03:18:50;;;;;;;8.35;3.22;;;-0.30;99.50;;;-0.87;83.99;99691.81;5144194;28;20055;-68
2022/12/14 03:21:28;;;;;;;6.60;3.25;;;-0.30;99.60;;;-0.86;84.23;99691.91;5139078;28;20042;-71
2022/12/14 03:24:05;;;;;;;7.28;3.03;;;-0.30;99.60;;;-0.84;84.17;99685.22;5124786;28;20047;-72
2022/12/14 03:26:45;;;;;;;6.72;3.35;;;-0.30;99.60;;;-0.82;84.15;99680.19;5125404;28;20502;-69
2022/12/14 03:29:23;;;;;;;7.68;2.75;;;-0.30;99.70;;;-0.80;84.17;99693.06;5141841;28;20042;-69
2022/12/14 03:31:58;;;;;;;5.75;2.88;;;-0.20;99.70;;;-0.80;84.30;99691.41;5145312;28;20038;-70
2022/12/14 03:34:37;;;;;;;6.88;3.10;;;-0.30;99.80;;;-0.82;84.24;99691.31;5144789;28;20039;-70
2022/12/14 03:37:14;;;;;;;8.32;3.38;;;-0.30;99.80;;;-0.82;84.79;99691.31;5145241;28;20137;-69
2022/12/14 03:39:47;;;;;;;7.22;2.80;;;-0.30;99.90;;;-0.83;84.34;99683.56;5143670;28;20043;-74
2022/12/14 03:42:25;;;;;;;5.88;2.90;;;-0.30;99.80;;;-0.83;84.46;99684.44;5145979;28;20373;-74
2022/12/14 03:45:02;;;;;;;10.05;3.28;;;-0.30;99.80;;;-0.82;84.78;99686.19;5143832;28;20039;-73
2022/12/14 03:47:54;;;;;;;7.05;3.20;;;-0.30;99.80;;;-0.80;84.56;99693.97;5145763;28;20046;-75
2022/12/14 03:50:35;;;;;;;6.97;2.70;;;-0.20;99.80;;;-0.79;84.52;99695.72;5144226;28;20069;-74
2022/12/14 03:53:13;;;;;;;8.30;2.95;;;-0.20;99.90;;;-0.78;84.55;99697.53;5145551;28;20069;-70
2022/12/14 03:55:55;;;;;;;6.70;3.10;;;-0.30;99.70;;;-0.76;84.38;99692.50;5143633;28;20038;-69
2022/12/14 03:58:38;;;;;;;7.72;3.50;;;-0.20;99.80;;;-0.77;84.32;99693.28;5144868;28;20046;-71
2022/12/14 04:01:17;;;;;;;4.30;2.38;;;-0.20;99.60;;;-0.77;84.36;99693.28;5144634;28;20039;-72
2022/12/14 04:03:56;;;;;;;5.50;2.85;;;-0.20;99.70;;;-0.76;84.20;99692.50;5138937;28;20057;-70
2022/12/14 04:06:39;;;;;;;5.10;2.30;;;-0.20;99.70;;;-0.74;84.27;99688.34;5142386;28;20046;-71
2022/12/14 04:09:25;;;;;;;4.20;2.35;;;-0.20;99.80;;;-0.73;84.62;99685.00;5144485;28;20039;-71
2022/12/14 04:20:50;;;;;;;8.50;2.70;;;-0.20;99.70;;;-0.64;84.19;99670.22;5142996;28;20721;-71
2022/12/14 04:26:29;;;;;;;7.60;3.28;;;-0.20;99.80;;;-0.61;84.16;99676.38;5143889;28;20043;-71
2022/12/14 04:32:04;;;;;;;7.97;4.07;;;-0.20;99.90;;;-0.60;84.69;99679.81;5144081;28;20070;-71
2022/12/14 04:34:37;;;;;;;15.80;7.22;;;-0.20;99.90;;;-0.65;84.29;99681.25;5144035;28;20061;-72
2022/12/14 04:37:16;;;;;;;9.40;4.60;;;-0.10;99.90;;;-0.69;84.48;99674.16;5142708;28;20057;-70
2022/12/14 04:39:52;;;;;;;7.80;4.15;;;-0.20;99.80;;;-0.74;84.42;99670.44;5143696;28;20053;-72
2022/12/14 04:42:29;;;;;;;7.90;3.85;;;-0.20;99.70;;;-0.76;85.01;99662.66;5144009;28;20043;-71
2022/12/14 04:45:08;;;;;;;6.72;3.60;;;-0.20;99.80;;;-0.76;84.58;99664.34;5143560;28;20141;-70
2022/12/14 04:47:51;;;;;;;7.93;3.75;;;-0.20;99.90;;;-0.75;85.12;99651.63;5144218;28;20043;-71
2022/12/14 04:50:30;;;;;;;5.97;2.92;;;-0.20;99.90;;;-0.74;85.27;99647.41;5143723;28;20046;-71
2022/12/14 04:53:09;;;;;;;5.85;2.92;;;-0.20;99.90;;;-0.74;85.17;99632.94;5143663;28;20042;-71
2022/12/14 04:55:51;;;;;;;6.38;3.10;;;-0.20;99.90;;;-0.79;85.28;99643.66;5143292;28;20054;-71
2022/12/14 04:58:26;;;;;;;7.53;3.38;;;-0.20;99.90;;;-0.85;85.51;99645.09;5143698;28;20051;-71
2022/12/14 05:01:11;;;;;;;;;;;-0.20;99.90;;;-0.90;85.21;99638.78;5144122;28;20051;-70
2022/12/14 05:06:27;;;;;;;7.18;2.85;;;-0.30;99.90;;;-0.90;85.69;99623.44;5127276;28;20058;-69
2022/12/14 05:09:17;;;;;;;8.82;3.17;;;-0.30;99.90;;;-0.84;85.72;99628.94;5128784;28;20054;-71
2022/12/14 05:12:00;;;;;;;8.18;3.17;;;-0.30;99.90;;;-0.82;85.92;99623.91;5123744;28;20063;-70
2022/12/14 05:14:39;;;;;;;6.68;2.97;;;-0.30;99.90;;;-0.89;85.44;99627.75;5122826;28;20504;-70
2022/12/14 05:17:12;;;;;;;8.00;3.30;;;-0.30;99.90;;;-0.90;85.86;99623.44;5121606;29;20590;-70
2022/12/14 05:19:45;;;;;;;6.55;3.13;;;-0.30;99.90;;;-0.89;85.99;99621.78;5123223;28;20062;-70
2022/12/14 05:22:18;;;;;;;5.88;3.38;;;-0.30;99.90;;;-0.91;85.88;99618.25;5122865;28;20047;-70
2022/12/14 05:24:50;;;;;;;6.72;2.92;;;-0.30;99.90;;;-0.95;86.07;99613.72;5122521;28;20385;-69
2022/12/14 05:27:24;;;;;;;7.38;3.20;;;-0.30;99.90;;;-0.95;86.30;99606.03;5123014;28;20055;-69
2022/12/14 05:29:57;;;;;;;9.43;3.33;;;-0.30;99.90;;;-0.95;86.40;99595.81;5122774;28;20051;-70
2022/12/14 05:32:29;;;;;;;8.23;3.78;;;-0.40;99.90;;;-0.98;86.32;99591.41;5123538;28;20079;-70
2022/12/14 05:35:03;;;;;;;7.65;4.18;;;-0.30;99.90;;;-1.04;85.97;99583.34;5122444;29;20047;-70
2022/12/14 05:37:35;;;;;;;7.28;4.03;;;-0.40;99.90;;;-1.04;86.62;99583.34;5123380;28;20216;-70
2022/12/14 05:40:09;;;;;;;6.65;3.45;;;-0.40;99.90;;;-1.01;86.76;99578.41;5123106;28;20055;-70
2022/12/14 05:42:42;;;;;;;7.03;3.30;;;-0.40;99.90;;;-1.02;86.68;99579.22;5122867;28;20051;-70
2022/12/14 05:45:16;;;;;;;7.60;4.25;;;-0.40;99.90;;;-0.99;86.42;99569.16;5122331;28;20408;-69
2022/12/14 05:47:49;;;;;;;6.93;3.10;;;-0.40;99.90;;;-0.94;86.43;99578.00;5122864;28;20043;-69
2022/12/14 05:50:21;;;;;;;6.00;2.63;;;-0.40;99.90;;;-0.91;86.37;99570.53;5122911;28;20047;-69
2022/12/14 05:52:54;;;;;;;7.72;3.03;;;-0.40;99.90;;;-0.90;86.31;99559.50;5122692;29;20412;-71
2022/12/14 05:55:26;;;;;;;5.63;2.78;;;-0.30;99.90;;;-0.91;86.31;99557.72;5122272;28;20409;-69
2022/12/14 05:58:00;;;;;;;7.25;3.47;;;-0.40;99.90;;;-0.91;86.55;99559.41;5122625;28;20043;-69
2022/12/14 06:00:33;;;;;;;6.63;2.83;;;-0.30;99.90;;;-0.98;86.14;99555.59;5123214;28;20051;-70
2022/12/14 06:03:06;;;;;;;7.47;3.63;;;-0.40;99.90;;;-1.00;86.53;99556.28;5122887;28;20059;-69
2022/12/14 06:05:39;;;;;;;7.75;3.58;;;-0.40;99.90;;;-1.01;86.70;99560.50;5122365;28;20456;-69
2022/12/14 06:08:11;;;;;;;8.23;3.53;;;-0.40;99.90;;;-1.01;86.58;99557.06;5122588;28;20519;-71
2022/12/14 06:10:43;;;;;;;7.82;3.25;;;-0.40;99.90;;;-1.04;86.44;99556.88;5121497;29;20055;-70
2022/12/14 06:13:16;;;;;;;7.60;3.42;;;-0.40;99.90;;;-1.04;86.99;99557.78;5122809;28;20058;-69
2022/12/14 06:15:49;;;;;;;7.28;3.15;;;-0.40;99.90;;;-0.99;87.01;99570.81;5122584;28;20053;-71
2022/12/14 06:18:23;;;;;;;9.45;4.07;;;-0.40;99.90;;;-0.95;86.93;99568.56;5124107;28;20071;-70
2022/12/14 06:20:57;;;;;;;11.18;4.38;;;-0.40;99.90;;;-0.89;86.70;99560.38;5125952;28;20047;-71
2022/12/14 06:23:30;;;;;;;10.40;4.15;;;-0.30;99.90;;;-0.86;87.00;99561.41;5126460;28;20039;-71
2022/12/14 06:26:03;;;;;;;8.07;3.35;;;-0.30;99.90;;;-0.80;87.12;99560.91;5126010;28;20519;-70
2022/12/14 06:28:37;;;;;;;8.70;4.28;;;-0.20;99.90;;;-0.74;86.98;99570.63;5125028;29;20047;-70
2022/12/14 06:31:15;;;;;;;10.93;4.30;;;-0.20;99.90;;;-0.73;86.94;99562.16;5124643;29;20055;-69
2022/12/14 06:33:48;;;;;;;12.23;4.10;;;-0.20;99.90;;;-0.71;86.53;99560.59;5125947;28;20572;-70
2022/12/14 06:36:23;;;;;;;8.73;3.83;;;-0.20;99.90;;;-0.72;86.58;99564.78;5124639;29;20055;-69
2022/12/14 06:38:56;;;;;;;8.50;3.72;;;-0.20;99.90;;;-0.70;86.71;99562.34;5126307;28;20469;-70
2022/12/14 06:41:29;;;;;;;8.88;3.80;;;-0.20;99.90;;;-0.66;87.13;99559.16;5125765;28;20043;-70
2022/12/14 06:44:07;;;;;;;7.95;3.35;;;-0.20;99.90;;;-0.65;87.01;99560.97;5125604;28;20047;-71
2022/12/14 06:46:40;;;;;;;10.05;3.40;;;-0.20;99.90;;;-0.64;87.16;99557.59;5125782;28;20058;-70
2022/12/14 06:49:14;;;;;;;8.52;3.03;;;-0.20;99.90;;;-0.64;86.89;99568.72;5124572;29;20051;-70
2022/12/14 06:51:46;;;;;;;6.13;2.90;;;-0.20;99.90;;;-0.62;86.73;99568.81;5125888;28;20342;-70
2022/12/14 06:54:19;;;;;;;7.95;3.53;;;-0.10;99.90;;;-0.62;86.80;99563.69;5125243;28;20051;-69
2022/12/14 06:56:52;;;;;;;8.00;3.60;;;-0.20;99.90;;;-0.61;86.46;99560.31;5124111;29;20035;-70
2022/12/14 06:59:25;;;;;;;7.75;2.97;;;-0.10;99.90;;;-0.60;86.93;99559.53;5125989;28;20468;-69
2022/12/14 07:01:57;;;;;;;7.75;3.47;;;-0.10;99.90;;;-0.57;87.05;99559.72;5125775;28;20047;-64
2022/12/14 07:04:30;;;;;;;13.07;4.25;;;-0.10;99.90;;;-0.55;86.88;99558.13;5125349;28;20068;-55
2022/12/14 07:07:02;;;;;;;15.18;5.80;;;-0.10;99.90;;;-0.53;87.12;99560.78;5125393;28;20051;-56
2022/12/14 07:09:34;;;;;;;12.27;4.50;;;-0.10;99.90;;;-0.50;87.07;99566.09;5125204;28;20408;-56
2022/12/14 07:12:06;;;;;;;12.85;5.15;;;0.00;99.90;;;-0.48;88.27;99564.50;5124971;28;20519;-56
2022/12/14 07:14:40;;;;;;;11.02;4.70;;;0.00;99.90;;;-0.42;88.33;99570.84;5124636;28;20105;-55
2022/12/14 07:17:12;;;;;;;12.40;4.20;;;0.10;99.90;;;-0.39;87.80;99568.50;5124913;28;20066;-55
2022/12/14 07:19:44;;;;;;;9.20;3.90;;;0.10;99.90;;;-0.39;87.21;99568.50;5124841;28;20404;-55
2022/12/14 07:22:16;;;;;;;7.32;2.95;;;0.10;99.90;;;-0.38;87.53;99567.69;5125075;28;20406;-56
2022/12/14 07:24:48;;;;;;;7.97;3.15;;;0.10;99.90;;;-0.37;87.35;99574.56;5140741;28;20047;-55
2022/12/14 07:27:22;;;;;;;10.95;4.93;;;0.10;99.90;;;-0.34;86.90;99569.63;5145006;28;20042;-54
2022/12/14 07:29:56;;;;;;;9.85;3.97;;;0.10;99.90;;;-0.34;86.69;99563.63;5144255;28;20066;-56
2022/12/14 07:32:28;;;;;;;10.18;4.32;;;0.10;99.90;;;-0.37;86.08;99566.00;5144910;28;20047;-54
2022/12/14 07:35:00;;;;;;;6.97;3.55;;;0.10;99.90;;;-0.40;86.22;99571.81;5144107;28;20043;-56
2022/12/14 07:37:33;;;;;;;11.35;3.58;;;0.10;99.90;;;-0.42;86.33;99575.97;5144422;28;20064;-56
2022/12/14 07:40:07;;;;;;;7.07;3.15;;;0.10;99.90;;;-0.39;86.17;99575.25;5126267;28;20047;-55
2022/12/14 07:42:39;;;;;;;7.45;3.75;;;0.10;99.90;;;-0.37;86.04;99581.38;5121396;28;20047;-56
2022/12/14 07:45:16;;;;;;;7.60;3.20;;;0.20;99.90;;;-0.36;86.06;99578.91;5119509;29;20047;-56
2022/12/14 07:47:48;;;;;;;9.10;3.92;;;0.10;99.90;;;-0.38;85.95;99572.81;5122589;28;20118;-57
2022/12/14 07:50:20;;;;;;;7.43;3.58;;;0.10;99.90;;;-0.39;86.04;99580.38;5122528;28;20496;-55
2022/12/14 07:52:52;;;;;;;6.63;3.25;;;0.10;99.90;;;-0.40;86.16;99569.25;5122041;28;20063;-55
2022/12/14 07:55:24;;;;;;;6.28;3.20;;;0.10;99.90;;;-0.40;85.91;99582.06;5121956;28;20036;-55
2022/12/14 07:57:57;;;;;;;7.95;3.65;;;0.20;99.90;;;-0.40;85.53;99574.38;5124062;28;20047;-57
2022/12/14 08:00:30;;;;;;;10.27;4.00;;;0.20;99.90;;;-0.40;85.75;99579.50;5122877;28;20051;-55
2022/12/14 08:03:02;;;;;;;8.63;3.95;;;0.10;99.90;;;-0.40;85.55;99576.94;5130926;28;20535;-56
2022/12/14 08:05:38;;;;;;;6.40;3.40;;;0.10;99.90;;;-0.39;85.58;99580.38;5143395;28;20129;-55
2022/12/14 08:08:10;;;;;;;9.80;4.20;;;0.10;99.90;;;-0.32;90.55;99573.16;5142931;28;20038;-57
2022/12/14 08:10:42;;;;;;;8.25;4.15;;;0.20;99.90;;;-0.26;87.13;99567.53;5143970;28;20061;-57
2022/12/14 08:13:15;;;;;;;10.75;3.90;;;0.30;99.90;;;-0.25;86.21;99569.28;5137867;28;20049;-56
2022/12/14 08:15:49;;;;;;;8.63;3.40;;;0.30;99.90;;;-0.30;85.97;99566.44;5124334;28;20138;-55
2022/12/14 08:18:21;;;;;;;8.43;4.20;;;0.30;99.90;;;-0.33;86.19;99566.28;5125005;28;20531;-56
2022/12/14 08:20:53;;;;;;;10.90;4.13;;;0.20;99.90;;;-0.36;85.97;99560.09;5124836;28;20504;-56
2022/12/14 08:23:25;;;;;;;10.63;5.28;;;0.20;99.90;;;-0.38;85.76;99570.25;5123158;28;20496;-55
2022/12/14 08:26:00;;;;;;;7.82;3.97;;;0.20;99.90;;;-0.39;85.52;99565.00;5122923;28;20122;-55
2022/12/14 08:28:34;;;;;;;9.88;4.53;;;0.20;99.90;;;-0.40;86.05;99564.13;5123546;28;20059;-56
2022/12/14 08:31:11;;;;;;;12.63;4.80;;;0.20;99.90;;;-0.41;85.49;99567.50;5122290;29;20500;-57
2022/12/14 08:33:44;;;;;;;10.05;4.28;;;0.20;99.90;;;-0.41;85.98;99559.81;5123104;28;20043;-56
2022/12/14 08:36:19;;;;;;;9.98;4.25;;;0.20;99.90;;;-0.42;86.08;99569.97;5140279;28;20062;-57
2022/12/14 08:38:53;;;;;;;9.43;4.95;;;0.20;99.90;;;-0.41;85.97;99577.72;5143318;28;20319;-55
2022/12/14 08:41:27;;;;;;;10.05;4.45;;;0.20;99.90;;;-0.34;85.95;99578.97;5137858;28;20579;-56
2022/12/14 08:44:02;;;;;;;10.23;3.78;;;0.20;99.90;;;-0.31;85.61;99574.94;5122583;28;20397;-57
2022/12/14 08:46:37;;;;;;;9.57;3.67;;;0.20;99.90;;;-0.30;85.92;99568.13;5123217;28;20047;-56
2022/12/14 08:49:11;;;;;;;10.23;4.30;;;0.20;99.90;;;-0.25;85.84;99565.84;5122025;29;20067;-57
2022/12/14 08:51:43;;;;;;;10.00;4.53;;;0.30;99.90;;;-0.24;85.71;99559.91;5124820;28;20071;-57
2022/12/14 08:54:17;;;;;;;10.55;5.25;;;0.30;99.90;;;-0.26;85.93;99564.97;5139197;28;20046;-57
2022/12/14 08:56:50;;;;;;;13.38;6.00;;;0.30;99.90;;;-0.25;85.84;99569.28;5143406;28;20558;-57
2022/12/14 08:59:22;;;;;;;13.05;5.55;;;0.30;99.90;;;-0.22;85.88;99568.56;5142259;28;20178;-57
2022/12/14 09:01:56;;;;;;;17.52;7.55;;;0.30;99.90;;;-0.24;85.75;99568.50;5143354;28;20404;-56
2022/12/14 09:04:28;;;;;;;20.58;6.80;;;0.30;99.90;;;-0.28;86.16;99574.22;5142664;28;20455;-57
2022/12/14 09:07:00;;;;;;;16.58;8.23;;;0.30;99.90;;;-0.28;86.42;99575.09;5142976;28;20054;-57
2022/12/14 09:09:36;;;;;;;13.65;6.53;;;0.30;99.90;;;-0.29;86.33;99583.56;5142957;28;20050;-57
2022/12/14 09:12:08;;;;;;;14.10;7.20;;;0.30;99.90;;;-0.31;87.34;99582.63;5143022;28;20049;-57
2022/12/14 09:14:40;;;;;;;12.18;5.32;;;0.30;99.90;;;-0.28;87.59;99587.91;5142660;28;20403;-57
2022/12/14 09:17:13;;;;;;;14.25;5.55;;;0.30;99.90;;;-0.22;87.90;99595.06;5142937;28;20046;-57
2022/12/14 09:19:45;;;;;;;10.45;4.07;;;0.40;99.90;;;-0.19;87.94;99600.38;5143388;28;20072;-57
2022/12/14 09:22:17;;;;;;;12.07;5.95;;;0.40;99.90;;;-0.19;87.72;99595.25;5122181;28;20051;-56
2022/12/14 09:24:50;;;;;;;9.63;4.45;;;0.40;99.90;;;-0.15;88.17;99598.84;5112827;28;20432;-57
2022/12/14 09:27:22;;;;;;;9.38;4.57;;;0.40;99.90;;;-0.17;88.75;99593.66;5106044;28;20600;-55
2022/12/14 09:29:55;;;;;;;11.13;5.60;;;0.40;99.90;;;-0.12;88.65;99586.25;5107781;28;20039;-58
2022/12/14 09:32:30;;;;;;;10.52;5.28;;;0.40;99.90;;;-0.09;89.76;99591.53;5122401;28;20055;-56
2022/12/14 09:35:02;;;;;;;15.45;7.20;;;0.40;99.90;;;-0.09;91.00;99596.66;5121932;28;20055;-56
2022/12/14 09:37:34;;;;;;;12.80;6.00;;;0.40;99.90;;;-0.05;91.17;99602.06;5119712;28;20061;-56
2022/12/14 09:40:10;;;;;;;15.55;6.82;;;0.50;99.90;;;-0.01;91.60;99603.09;5130873;28;20054;-57
2022/12/14 09:43:00;;;;;;;14.02;6.47;;;0.50;99.90;;;0.00;92.41;99607.44;5121688;28;20073;-57
2022/12/14 09:45:35;;;;;;;19.50;8.45;;;0.50;99.90;;;-0.02;92.93;99603.91;5120157;28;20520;-57
2022/12/14 09:48:16;;;;;;;17.70;6.97;;;0.50;99.90;;;0.02;93.06;99610.97;5121964;28;20672;-58
2022/12/14 09:50:50;;;;;;;13.02;6.65;;;0.50;99.90;;;0.09;93.99;99617.34;5122301;28;20516;-57
2022/12/14 09:53:23;;;;;;;11.85;5.75;;;0.60;99.90;;;0.03;94.47;99602.47;5123468;28;20061;-57
2022/12/14 09:55:57;;;;;;;12.25;5.90;;;0.60;99.90;;;-0.04;95.61;99608.06;5125618;28;20062;-58
2022/12/14 09:58:31;;;;;;;12.55;6.55;;;0.50;99.90;;;-0.13;97.46;99600.72;5126285;28;20054;-58
2022/12/14 10:01:25;;;;;;;13.35;5.90;;;0.40;99.90;;;-0.14;97.96;99613.44;5125101;28;20118;-57
2022/12/14 10:04:03;;;;;;;11.02;5.97;;;0.40;99.90;;;-0.14;98.82;99598.06;5119701;28;20050;-56
2022/12/14 10:06:47;;;;;;;13.05;6.40;;;0.40;99.90;;;-0.24;100.00;99599.22;5125915;28;20039;-57
2022/12/14 10:09:26;;;;;;;13.48;6.10;;;0.40;99.90;;;-0.28;100.00;99605.81;5125984;28;20069;-57
2022/12/14 10:12:08;;;;;;;13.98;6.20;;;0.30;99.90;;;-0.30;100.00;99614.22;5126585;28;20656;-57
2022/12/14 10:14:58;;;;;;;11.43;5.68;;;0.30;99.90;;;-0.32;100.00;99614.16;5124915;28;20471;-57
2022/12/14 10:17:50;;;;;;;15.63;6.70;;;0.30;99.90;;;-0.35;100.00;99608.81;5125866;28;20048;-57
2022/12/14 10:20:33;;;;;;;14.38;6.78;;;0.30;99.90;;;-0.38;100.00;99624.03;5144908;28;20055;-57
2022/12/14 10:23:05;;;;;;;18.92;9.55;;;0.30;99.90;;;-0.33;100.00;99622.63;5144809;28;20064;-57
2022/12/14 10:25:38;;;;;;;16.17;8.90;;;0.30;99.90;;;-0.32;100.00;99618.38;5127541;28;20500;-58
2022/12/14 10:28:17;;;;;;;16.38;7.25;;;0.30;99.90;;;-0.29;100.00;99611.75;5125390;28;20043;-57
2022/12/14 10:30:55;;;;;;;15.55;7.45;;;0.30;99.90;;;-0.24;100.00;99608.59;5124345;28;20043;-57
2022/12/14 10:33:30;;;;;;;14.43;6.50;;;0.30;99.90;;;-0.19;100.00;99605.50;5125271;28;20427;-58
2022/12/14 10:36:12;;;;;;;14.00;6.95;;;0.30;99.90;;;-0.13;100.00;99605.84;5125452;28;20051;-56
2022/12/14 10:38:52;;;;;;;12.77;5.80;;;0.40;99.90;;;-0.11;100.00;99601.69;5125357;28;20047;-56
2022/12/14 10:41:34;;;;;;;11.75;5.65;;;0.40;99.90;;;-0.06;100.00;99594.28;5125587;28;20324;-56
2022/12/14 10:44:20;;;;;;;13.32;6.22;;;0.40;99.90;;;-0.09;100.00;99588.97;5125036;28;20058;-58
2022/12/14 10:46:59;;;;;;;14.75;6.25;;;0.50;99.90;;;-0.11;100.00;99585.44;5118428;28;20053;-57
2022/12/14 10:49:39;;;;;;;13.15;5.93;;;0.50;99.90;;;-0.16;100.00;99595.41;5112068;28;20071;-56
2022/12/14 10:52:17;;;;;;;11.63;5.82;;;0.40;99.90;;;-0.17;100.00;99587.66;5119989;28;20043;-56
2022/12/14 10:54:53;;;;;;;12.82;7.00;;;0.40;99.90;;;-0.16;100.00;99589.41;5123748;28;20054;-58
2022/12/14 10:57:27;;;;;;;15.05;6.45;;;0.40;99.90;;;-0.15;100.00;99601.41;5125287;29;20050;-57
2022/12/14 11:00:00;;;;;;;12.30;5.30;;;0.40;99.90;;;-0.09;100.00;99596.66;5125088;28;20582;-57
2022/12/14 11:02:35;;;;;;;12.98;5.60;;;0.40;99.90;;;-0.01;100.00;99597.97;5125048;28;20045;-56
2022/12/14 11:05:23;;;;;;;19.20;10.02;;;0.50;99.90;;;0.03;100.00;99597.34;5245694;23;20042;-56
2022/12/14 11:07:56;;;;;;;27.10;15.75;;;0.50;99.90;;;0.01;100.00;99585.28;5165947;28;20046;-58
2022/12/14 11:10:31;;;;;;;17.80;9.32;;;0.50;99.90;;;-0.02;100.00;99578.28;5165915;28;20046;-58
2022/12/14 11:13:06;;;;;;;19.63;8.30;;;0.50;99.90;;;-0.05;100.00;99575.56;5165687;28;20046;-58